Time;durP1;ratioP1;P1;durP2;ratioP2;P2;SDS_P1;SDS_P2;PMS_P1;PMS_P2;Temp;Humidity;BMP_temperature;BMP_pressure;BME280_temperature;BME280_humidity;BME280_pressure;Samples;Min_cycle;Max_cycle;Signal;HPM_P1;HPM_P2
2022/10/24 00:00:35;;;;;;;1.80;0.95;;;15.20;99.90;;;;;;4985715;28;20042;-38
2022/10/24 00:03:01;;;;;;;2.22;0.55;;;15.20;99.90;;;;;;4986666;28;20043;-38
2022/10/24 00:05:26;;;;;;;4.50;0.73;;;15.20;99.90;;;;;;4989548;28;20034;-38
2022/10/24 00:07:52;;;;;;;1.13;0.45;;;15.30;99.90;;;;;;4987605;28;20511;-39
2022/10/24 00:10:18;;;;;;;3.22;0.80;;;15.30;99.90;;;;;;4988437;28;20121;-38
2022/10/24 00:12:45;;;;;;;2.20;0.50;;;15.30;99.90;;;;;;4977007;28;20046;-38
2022/10/24 00:15:11;;;;;;;2.95;0.50;;;15.20;99.90;;;;;;4984132;28;20546;-37
2022/10/24 00:17:37;;;;;;;5.43;1.00;;;15.20;99.90;;;;;;4986571;28;20492;-39
2022/10/24 00:20:04;;;;;;;3.88;0.60;;;15.20;99.90;;;;;;4988924;28;20046;-38
2022/10/24 00:22:29;;;;;;;1.92;0.60;;;15.20;99.90;;;;;;4981056;28;20041;-38
2022/10/24 00:24:55;;;;;;;4.32;0.90;;;15.20;99.90;;;;;;4983466;28;20129;-39
2022/10/24 00:27:20;;;;;;;2.50;0.50;;;15.20;99.90;;;;;;4989121;28;20122;-39
2022/10/24 00:29:46;;;;;;;6.28;0.73;;;15.20;99.90;;;;;;4988461;28;20066;-38
2022/10/24 00:32:13;;;;;;;3.45;0.90;;;15.20;99.90;;;;;;4985628;28;20045;-38
2022/10/24 00:34:39;;;;;;;2.70;0.70;;;15.20;99.90;;;;;;4983787;28;20038;-38
2022/10/24 00:37:05;;;;;;;4.43;0.77;;;15.10;99.90;;;;;;4984861;28;20133;-38
2022/10/24 00:39:30;;;;;;;2.33;0.60;;;15.20;99.90;;;;;;4985912;28;20121;-38
2022/10/24 00:41:57;;;;;;;2.40;0.70;;;15.10;99.90;;;;;;4986678;28;20038;-38
2022/10/24 00:44:29;;;;;;;4.07;0.70;;;15.20;99.90;;;;;;4985578;28;20057;-38
2022/10/24 00:47:03;;;;;;;2.53;0.85;;;15.20;99.90;;;;;;4982833;28;20050;-39
2022/10/24 00:49:32;;;;;;;3.63;0.90;;;15.20;99.90;;;;;;4986206;28;20406;-38
2022/10/24 00:52:02;;;;;;;5.30;1.30;;;15.30;99.90;;;;;;4987873;28;20050;-39
2022/10/24 00:54:28;;;;;;;4.28;1.00;;;15.30;99.90;;;;;;4993548;28;20572;-38
2022/10/24 00:57:04;;;;;;;3.45;0.73;;;15.40;99.90;;;;;;4989241;28;20042;-38
2022/10/24 00:59:33;;;;;;;6.00;1.08;;;15.40;99.90;;;;;;4985420;28;20052;-38
2022/10/24 01:01:59;;;;;;;9.25;2.22;;;15.40;99.90;;;;;;4988203;28;20108;-39
2022/10/24 01:04:24;;;;;;;3.63;1.00;;;15.40;99.90;;;;;;4986357;28;20046;-38
2022/10/24 01:07:15;;;;;;;5.85;1.10;;;15.40;99.90;;;;;;4984051;28;21351;-38
2022/10/24 01:10:07;;;;;;;3.90;1.65;;;15.30;99.90;;;;;;4990445;28;20046;-42
2022/10/24 01:12:58;;;;;;;7.30;1.27;;;15.40;99.90;;;;;;4986375;28;20680;-39
2022/10/24 01:15:38;;;;;;;5.32;1.15;;;15.40;99.90;;;;;;4972715;28;20318;-38
2022/10/24 01:18:16;;;;;;;4.82;1.00;;;15.30;99.90;;;;;;4984275;28;20046;-49
2022/10/24 01:20:50;;;;;;;5.88;1.08;;;15.30;99.90;;;;;;4989241;28;20125;-38
2022/10/24 01:23:55;;;;;;;7.95;1.33;;;15.30;99.90;;;;;;4987035;28;20073;-38
2022/10/24 01:26:36;;;;;;;3.97;1.10;;;15.30;99.90;;;;;;4892596;29;20049;-38
2022/10/24 01:29:15;;;;;;;6.55;1.33;;;15.30;99.90;;;;;;4977778;28;20096;-38
2022/10/24 01:31:54;;;;;;;9.30;1.70;;;15.30;99.90;;;;;;4988685;28;20057;-38
2022/10/24 01:34:27;;;;;;;6.50;1.20;;;15.30;99.90;;;;;;4991340;28;20069;-38
2022/10/24 01:37:05;;;;;;;3.50;1.00;;;15.30;99.90;;;;;;4990692;28;20050;-38
2022/10/24 01:39:37;;;;;;;7.45;1.10;;;15.30;99.90;;;;;;4989702;28;20031;-38
2022/10/24 01:42:06;;;;;;;6.05;1.08;;;15.30;99.90;;;;;;4992585;28;20038;-38
2022/10/24 01:44:42;;;;;;;3.30;0.90;;;15.40;99.90;;;;;;4983703;28;20050;-38
2022/10/24 01:47:21;;;;;;;4.35;0.95;;;15.50;99.90;;;;;;4989425;28;20081;-39
2022/10/24 01:50:00;;;;;;;3.20;0.98;;;15.50;99.90;;;;;;4987436;28;20077;-38
2022/10/24 01:52:31;;;;;;;4.32;1.45;;;15.50;99.90;;;;;;4981707;28;20042;-37
2022/10/24 01:54:58;;;;;;;5.78;0.80;;;15.50;99.90;;;;;;4987159;28;20073;-38
2022/10/24 01:57:32;;;;;;;4.25;0.77;;;15.40;99.90;;;;;;4993003;28;20915;-38
2022/10/24 01:59:58;;;;;;;3.53;1.02;;;15.30;99.90;;;;;;4986373;28;20095;-39
2022/10/24 02:02:38;;;;;;;3.80;1.00;;;15.30;99.90;;;;;;4991447;28;20045;-38
2022/10/24 02:05:11;;;;;;;6.43;1.13;;;15.30;99.90;;;;;;4986187;28;20555;-38
2022/10/24 02:07:41;;;;;;;3.45;0.75;;;15.20;99.90;;;;;;4986804;28;20034;-38
2022/10/24 02:10:21;;;;;;;5.30;0.88;;;15.20;99.90;;;;;;4987126;28;20061;-43
2022/10/24 02:12:58;;;;;;;2.78;0.73;;;15.20;99.90;;;;;;4991729;28;20476;-38
2022/10/24 02:15:31;;;;;;;3.20;1.00;;;15.20;99.90;;;;;;4991052;28;20157;-38
2022/10/24 02:17:57;;;;;;;4.95;1.10;;;15.20;99.90;;;;;;4985964;28;20403;-38
2022/10/24 02:20:34;;;;;;;4.07;0.80;;;15.20;99.90;;;;;;4969722;28;20038;-38
2022/10/24 02:23:09;;;;;;;4.47;1.10;;;15.20;99.90;;;;;;4989943;28;20049;-38
2022/10/24 02:25:37;;;;;;;2.80;0.80;;;15.20;99.90;;;;;;4989443;28;20042;-38
2022/10/24 02:28:08;;;;;;;4.22;1.10;;;15.20;99.90;;;;;;4984755;28;20073;-38
2022/10/24 02:30:40;;;;;;;4.30;1.13;;;15.20;99.90;;;;;;4988076;28;20050;-39
2022/10/24 02:33:08;;;;;;;4.82;1.00;;;15.10;99.90;;;;;;4984490;28;20500;-42
2022/10/24 02:35:35;;;;;;;4.45;0.90;;;15.10;99.90;;;;;;4979301;28;20164;-38
2022/10/24 02:38:16;;;;;;;8.90;0.90;;;15.10;99.90;;;;;;4987572;28;20065;-38
2022/10/24 02:40:44;;;;;;;4.65;1.17;;;15.10;99.90;;;;;;4986927;28;20034;-38
2022/10/24 02:43:12;;;;;;;6.78;1.05;;;15.10;99.90;;;;;;4981273;28;20069;-38
2022/10/24 02:45:38;;;;;;;2.83;0.93;;;15.10;99.90;;;;;;4987483;28;20043;-38
2022/10/24 02:48:08;;;;;;;6.05;1.08;;;15.00;99.90;;;;;;4989646;28;20054;-38
2022/10/24 02:50:36;;;;;;;4.60;1.00;;;14.90;99.90;;;;;;4983637;28;20492;-38
2022/10/24 02:53:03;;;;;;;3.17;0.90;;;14.90;99.90;;;;;;4980241;28;20053;-38
2022/10/24 02:55:28;;;;;;;3.90;1.15;;;14.80;99.90;;;;;;4988885;28;20407;-37
2022/10/24 02:57:54;;;;;;;5.15;0.80;;;14.80;99.90;;;;;;4987428;28;20034;-40
2022/10/24 03:00:20;;;;;;;6.78;1.10;;;14.80;99.90;;;;;;4984162;28;20157;-38
2022/10/24 03:02:45;;;;;;;4.03;1.23;;;14.80;99.90;;;;;;4985998;28;20472;-38
2022/10/24 03:05:11;;;;;;;2.80;0.90;;;14.80;99.90;;;;;;4986019;28;20038;-38
2022/10/24 03:07:36;;;;;;;6.55;1.15;;;14.80;99.90;;;;;;4986562;28;20169;-38
2022/10/24 03:10:02;;;;;;;4.22;1.10;;;14.70;99.90;;;;;;4984683;28;20290;-38
2022/10/24 03:12:28;;;;;;;5.32;1.40;;;14.80;99.90;;;;;;4981500;28;20444;-38
2022/10/24 03:14:54;;;;;;;4.43;1.00;;;14.80;99.90;;;;;;4989253;28;20042;-38
2022/10/24 03:17:20;;;;;;;7.13;1.30;;;14.90;99.90;;;;;;4987618;28;20046;-38
2022/10/24 03:19:46;;;;;;;4.78;1.38;;;14.90;99.90;;;;;;4984024;28;20038;-38
2022/10/24 03:22:12;;;;;;;5.63;1.10;;;14.90;99.90;;;;;;4982569;28;20034;-40
2022/10/24 03:24:37;;;;;;;6.50;1.13;;;15.00;99.90;;;;;;4989736;28;20033;-39
2022/10/24 03:27:03;;;;;;;2.88;0.98;;;15.00;99.90;;;;;;4986934;28;20039;-38
2022/10/24 03:29:29;;;;;;;7.38;1.05;;;15.00;99.90;;;;;;4984893;28;20181;-38
2022/10/24 03:31:54;;;;;;;7.28;1.10;;;15.00;99.90;;;;;;4987819;28;20064;-39
2022/10/24 03:34:20;;;;;;;3.60;1.20;;;15.00;99.90;;;;;;4987538;28;20511;-38
2022/10/24 03:36:46;;;;;;;4.00;0.85;;;15.00;99.90;;;;;;4987956;28;20042;-38
2022/10/24 03:39:11;;;;;;;6.70;1.00;;;15.00;99.90;;;;;;4986034;28;20042;-38
2022/10/24 03:41:37;;;;;;;8.60;1.17;;;15.00;99.90;;;;;;4979486;28;20110;-38
2022/10/24 03:44:02;;;;;;;3.83;1.05;;;15.00;99.90;;;;;;4984075;28;20176;-38
2022/10/24 03:46:28;;;;;;;6.57;1.00;;;15.00;99.90;;;;;;4986248;28;20039;-38
2022/10/24 03:48:54;;;;;;;4.22;1.00;;;15.00;99.90;;;;;;4977872;28;20042;-38
2022/10/24 03:51:20;;;;;;;4.78;1.20;;;15.00;99.90;;;;;;4984509;28;20049;-38
2022/10/24 03:53:45;;;;;;;4.05;0.90;;;15.00;99.90;;;;;;4985819;28;20502;-38
2022/10/24 03:56:11;;;;;;;4.50;0.98;;;15.00;99.90;;;;;;4985211;28;20600;-38
2022/10/24 03:58:36;;;;;;;4.32;0.90;;;14.90;99.90;;;;;;4988304;28;20396;-38
2022/10/24 04:01:02;;;;;;;7.47;1.17;;;14.90;99.90;;;;;;4979868;28;20381;-38
2022/10/24 04:03:28;;;;;;;3.90;1.00;;;14.80;99.90;;;;;;4982911;28;20095;-38
2022/10/24 04:05:54;;;;;;;5.45;0.88;;;14.80;99.90;;;;;;4982046;28;20053;-40
2022/10/24 04:08:20;;;;;;;7.47;1.00;;;14.80;99.90;;;;;;4981901;28;20057;-38
2022/10/24 04:10:47;;;;;;;4.30;1.00;;;14.80;99.90;;;;;;4984821;28;20026;-38
2022/10/24 04:13:12;;;;;;;3.47;1.02;;;14.70;99.90;;;;;;4987499;28;20038;-38
2022/10/24 04:15:38;;;;;;;4.82;0.98;;;14.70;99.90;;;;;;4985023;28;20034;-38
2022/10/24 04:18:04;;;;;;;7.22;1.02;;;14.60;99.90;;;;;;4986005;28;20038;-38
2022/10/24 04:20:30;;;;;;;4.20;0.85;;;14.60;99.90;;;;;;4986860;28;20173;-39
2022/10/24 04:22:55;;;;;;;7.00;1.20;;;14.50;99.90;;;;;;4980959;28;20042;-38
2022/10/24 04:25:21;;;;;;;3.70;0.88;;;14.50;99.90;;;;;;4985302;28;20082;-38
2022/10/24 04:27:47;;;;;;;5.72;1.00;;;14.50;99.90;;;;;;4988154;28;20038;-43
2022/10/24 04:30:13;;;;;;;4.80;1.33;;;14.50;99.90;;;;;;4983403;28;20047;-39
2022/10/24 04:32:39;;;;;;;2.92;0.90;;;14.50;99.90;;;;;;4984961;28;20405;-38
2022/10/24 04:35:06;;;;;;;3.75;0.70;;;14.40;99.90;;;;;;4983068;28;20162;-38
2022/10/24 04:37:32;;;;;;;3.17;1.02;;;14.40;99.90;;;;;;4982523;28;20046;-38
2022/10/24 04:39:57;;;;;;;3.85;1.08;;;14.40;99.90;;;;;;4977444;28;20039;-38
2022/10/24 04:42:24;;;;;;;5.32;1.02;;;14.30;99.90;;;;;;4982942;28;20043;-38
2022/10/24 04:44:50;;;;;;;2.67;0.80;;;14.30;99.90;;;;;;4981054;28;20141;-38
2022/10/24 04:47:16;;;;;;;5.88;1.38;;;14.30;99.90;;;;;;4985518;28;20129;-38
2022/10/24 04:49:42;;;;;;;3.20;1.10;;;14.30;99.90;;;;;;4989182;28;20046;-38
2022/10/24 04:52:07;;;;;;;6.05;0.68;;;14.20;99.90;;;;;;4979076;28;20045;-38
2022/10/24 04:54:33;;;;;;;5.15;0.70;;;14.20;99.90;;;;;;4978418;28;20034;-38
2022/10/24 04:56:59;;;;;;;5.15;0.70;;;14.20;99.90;;;;;;4989333;28;20043;-38
2022/10/24 04:59:24;;;;;;;4.05;0.68;;;14.20;99.90;;;;;;4988675;28;20042;-39
2022/10/24 05:01:50;;;;;;;5.68;0.70;;;14.20;99.90;;;;;;4990600;28;20454;-39
2022/10/24 05:04:16;;;;;;;1.77;0.65;;;14.30;99.90;;;;;;4989156;28;20046;-39
2022/10/24 05:06:42;;;;;;;2.45;0.77;;;14.30;99.90;;;;;;4988907;28;20113;-38
2022/10/24 05:09:07;;;;;;;5.82;0.80;;;14.30;99.90;;;;;;4989420;28;20173;-38
2022/10/24 05:11:34;;;;;;;3.83;0.70;;;14.20;99.90;;;;;;4985715;28;20372;-38
2022/10/24 05:13:59;;;;;;;5.32;0.77;;;14.10;99.90;;;;;;4988425;28;20054;-38
2022/10/24 05:16:25;;;;;;;4.55;0.60;;;14.10;99.90;;;;;;4990736;28;20053;-38
2022/10/24 05:18:51;;;;;;;4.13;0.70;;;14.00;99.90;;;;;;4988696;28;20043;-39
2022/10/24 05:21:16;;;;;;;4.28;0.60;;;14.00;99.90;;;;;;4985310;28;20124;-38
2022/10/24 05:23:42;;;;;;;4.32;0.60;;;14.00;99.90;;;;;;4985752;28;20509;-38
2022/10/24 05:26:08;;;;;;;4.95;0.80;;;14.10;99.90;;;;;;4986766;28;20034;-38
2022/10/24 05:28:34;;;;;;;5.20;0.93;;;14.20;99.90;;;;;;4986532;28;21482;-38
2022/10/24 05:30:59;;;;;;;5.57;0.88;;;14.20;99.90;;;;;;4980898;28;20130;-38
2022/10/24 05:33:25;;;;;;;3.85;0.73;;;14.20;99.90;;;;;;4987385;28;20607;-38
2022/10/24 05:35:52;;;;;;;3.30;0.60;;;14.30;99.90;;;;;;4986299;28;20061;-38
2022/10/24 05:38:18;;;;;;;3.72;0.70;;;14.40;99.90;;;;;;4986452;28;20063;-38
2022/10/24 05:40:48;;;;;;;5.70;0.80;;;14.50;99.90;;;;;;4992299;28;20594;-38
2022/10/24 05:43:14;;;;;;;4.78;0.65;;;14.50;99.90;;;;;;4985376;28;20030;-38
2022/10/24 05:45:40;;;;;;;5.13;0.50;;;14.50;99.90;;;;;;4982050;28;20046;-39
2022/10/24 05:48:06;;;;;;;2.47;0.60;;;14.50;99.90;;;;;;4992544;28;20075;-38
2022/10/24 05:50:33;;;;;;;2.50;0.52;;;14.60;99.90;;;;;;4995183;28;20048;-38
2022/10/24 05:52:59;;;;;;;4.80;0.70;;;14.60;99.90;;;;;;4987976;28;20089;-40
2022/10/24 05:55:25;;;;;;;3.25;0.73;;;14.60;99.90;;;;;;4991928;28;20515;-38
2022/10/24 05:57:51;;;;;;;6.07;0.75;;;14.60;99.90;;;;;;4984267;28;20112;-38
2022/10/24 06:00:17;;;;;;;7.03;0.88;;;14.70;99.90;;;;;;4985135;28;20039;-38
2022/10/24 06:02:43;;;;;;;4.43;0.70;;;14.60;99.90;;;;;;4990050;28;20038;-39
2022/10/24 06:05:09;;;;;;;5.82;0.43;;;14.70;99.90;;;;;;4986791;28;20162;-38
2022/10/24 06:07:36;;;;;;;3.78;0.85;;;14.70;99.90;;;;;;4988246;28;20037;-38
2022/10/24 06:10:04;;;;;;;2.35;0.57;;;14.70;99.90;;;;;;4991432;28;20064;-38
2022/10/24 06:12:29;;;;;;;2.78;0.77;;;14.60;99.90;;;;;;4986692;28;20074;-38
2022/10/24 06:14:57;;;;;;;2.22;0.32;;;14.60;99.90;;;;;;4992502;28;20088;-38
2022/10/24 06:17:23;;;;;;;1.40;0.47;;;14.60;99.90;;;;;;4993280;28;20042;-38
2022/10/24 06:19:49;;;;;;;4.45;0.80;;;14.60;99.90;;;;;;4989578;28;20054;-38
2022/10/24 06:22:16;;;;;;;4.68;0.50;;;14.50;99.90;;;;;;4992155;28;20491;-38
2022/10/24 06:24:42;;;;;;;3.15;0.73;;;14.50;99.90;;;;;;4991711;28;20042;-38
2022/10/24 06:27:08;;;;;;;2.08;0.60;;;14.50;99.90;;;;;;4985819;28;20038;-38
2022/10/24 06:29:34;;;;;;;3.03;0.70;;;14.50;99.90;;;;;;4986653;28;20477;-38
2022/10/24 06:32:00;;;;;;;3.83;0.50;;;14.50;99.90;;;;;;4989875;28;20073;-38
2022/10/24 06:34:26;;;;;;;3.78;0.60;;;14.50;99.90;;;;;;4985167;28;20043;-38
2022/10/24 06:36:51;;;;;;;2.80;0.40;;;14.60;99.90;;;;;;4988705;28;20038;-38
2022/10/24 06:39:17;;;;;;;6.13;1.35;;;14.60;99.90;;;;;;4992580;28;20038;-39
2022/10/24 06:41:43;;;;;;;3.15;0.63;;;14.60;99.90;;;;;;4991053;28;20030;-39
2022/10/24 06:44:08;;;;;;;5.18;0.85;;;14.60;99.90;;;;;;4990377;28;20527;-38
2022/10/24 06:46:34;;;;;;;5.80;0.60;;;14.60;99.90;;;;;;4992305;28;20050;-38
2022/10/24 06:49:00;;;;;;;5.10;0.70;;;14.70;99.90;;;;;;4991267;28;20046;-38
2022/10/24 06:51:25;;;;;;;1.60;0.60;;;14.70;99.90;;;;;;4990878;28;20038;-38
2022/10/24 06:53:52;;;;;;;3.55;0.85;;;14.80;99.90;;;;;;4990074;28;20381;-38
2022/10/24 06:56:17;;;;;;;3.67;0.68;;;14.80;99.90;;;;;;4991891;28;20484;-38
2022/10/24 06:58:43;;;;;;;4.05;1.02;;;14.90;99.90;;;;;;4991662;28;20092;-38
2022/10/24 07:01:13;;;;;;;8.52;1.77;;;14.90;99.90;;;;;;4988926;28;20050;-38
2022/10/24 07:03:39;;;;;;;2.60;0.60;;;15.00;99.90;;;;;;4981073;28;20105;-39
2022/10/24 07:06:16;;;;;;;4.07;0.55;;;15.00;99.90;;;;;;4980804;28;20419;-39
2022/10/24 07:08:42;;;;;;;3.58;0.85;;;15.00;99.90;;;;;;4989957;28;20034;-38
2022/10/24 07:11:08;;;;;;;3.55;0.63;;;15.10;99.90;;;;;;4987574;28;20046;-40
2022/10/24 07:13:34;;;;;;;4.68;0.70;;;15.10;99.90;;;;;;4989999;28;20097;-38
2022/10/24 07:15:59;;;;;;;5.15;0.52;;;15.10;99.90;;;;;;4986221;28;20056;-38
2022/10/24 07:18:25;;;;;;;9.52;0.80;;;15.20;99.90;;;;;;4992194;28;20113;-38
2022/10/24 07:20:51;;;;;;;2.50;0.40;;;15.10;99.90;;;;;;4987779;28;20042;-38
2022/10/24 07:23:17;;;;;;;4.45;0.68;;;15.20;99.90;;;;;;4990264;28;20034;-38
2022/10/24 07:25:42;;;;;;;4.38;0.70;;;15.20;99.90;;;;;;4989655;28;20496;-40
2022/10/24 07:28:10;;;;;;;2.80;0.75;;;15.20;99.90;;;;;;4989156;28;20038;-38
2022/10/24 07:30:36;;;;;;;5.30;0.70;;;15.20;99.90;;;;;;4984026;28;20038;-38
2022/10/24 07:33:02;;;;;;;2.78;0.52;;;15.20;99.90;;;;;;4988572;28;20042;-38
2022/10/24 07:35:27;;;;;;;4.50;0.60;;;15.20;99.90;;;;;;4984737;28;20514;-38
2022/10/24 07:37:53;;;;;;;2.13;0.65;;;15.20;99.90;;;;;;4989656;28;20482;-40
2022/10/24 07:40:19;;;;;;;2.10;0.52;;;15.20;99.90;;;;;;4990560;28;20500;-38
2022/10/24 07:42:45;;;;;;;5.53;0.60;;;15.30;99.90;;;;;;4989643;28;20096;-39
2022/10/24 07:45:11;;;;;;;4.05;0.60;;;15.30;99.90;;;;;;4984983;28;20053;-40
2022/10/24 07:47:36;;;;;;;4.65;0.70;;;15.30;99.90;;;;;;4981567;28;20423;-39
2022/10/24 07:50:04;;;;;;;2.00;0.50;;;15.40;99.90;;;;;;4989090;28;20078;-38
2022/10/24 07:52:29;;;;;;;6.88;1.05;;;15.40;99.90;;;;;;4984661;28;20491;-39
2022/10/24 07:54:57;;;;;;;3.55;0.43;;;15.50;99.90;;;;;;4987200;28;20034;-38
2022/10/24 07:57:23;;;;;;;2.83;0.60;;;15.50;99.90;;;;;;4990580;28;20515;-39
2022/10/24 07:59:48;;;;;;;3.97;0.55;;;15.60;99.90;;;;;;4990737;28;20510;-38
2022/10/24 08:02:16;;;;;;;7.40;0.43;;;15.60;99.90;;;;;;4989036;28;20038;-38
2022/10/24 08:04:42;;;;;;;3.65;0.82;;;15.70;99.90;;;;;;4986669;28;20527;-38
2022/10/24 08:07:12;;;;;;;4.57;0.40;;;15.70;99.90;;;;;;4986728;28;20034;-39
2022/10/24 08:09:43;;;;;;;5.15;0.52;;;15.80;99.90;;;;;;4990212;28;20080;-39
2022/10/24 08:12:09;;;;;;;5.40;0.70;;;15.80;99.90;;;;;;4986047;28;20038;-38
2022/10/24 08:14:39;;;;;;;3.88;0.98;;;15.90;99.90;;;;;;4976567;28;20504;-38
2022/10/24 08:17:05;;;;;;;6.15;0.35;;;15.90;99.90;;;;;;4989316;28;20046;-39
2022/10/24 08:19:32;;;;;;;4.38;0.65;;;16.00;99.90;;;;;;4989476;28;20492;-38
2022/10/24 08:21:59;;;;;;;7.70;0.70;;;16.00;99.90;;;;;;4990638;28;20044;-39
2022/10/24 08:24:25;;;;;;;4.68;0.70;;;16.10;99.90;;;;;;4989025;28;20034;-39
2022/10/24 08:26:51;;;;;;;5.80;0.63;;;16.20;99.90;;;;;;4988624;28;20531;-38
2022/10/24 08:29:21;;;;;;;6.80;1.10;;;16.20;99.90;;;;;;4987840;28;20077;-39
2022/10/24 08:31:52;;;;;;;4.85;0.50;;;16.30;99.90;;;;;;4986719;28;20046;-39
2022/10/24 08:34:19;;;;;;;3.35;0.52;;;16.30;99.90;;;;;;4982455;28;20082;-39
2022/10/24 08:36:46;;;;;;;2.65;0.50;;;16.30;99.90;;;;;;4988646;28;20511;-39
2022/10/24 08:39:11;;;;;;;2.72;0.50;;;16.30;99.90;;;;;;4990345;28;20042;-38
2022/10/24 08:41:45;;;;;;;5.00;1.15;;;16.30;99.90;;;;;;4983401;28;20889;-39
2022/10/24 08:44:28;;;;;;;4.63;0.63;;;16.20;99.90;;;;;;4983453;28;20053;-39
2022/10/24 08:47:01;;;;;;;4.63;0.82;;;16.30;99.90;;;;;;4988214;28;20566;-40
2022/10/24 08:49:46;;;;;;;5.40;0.88;;;16.30;99.90;;;;;;4990824;28;20042;-38
2022/10/24 08:52:26;;;;;;;3.90;0.57;;;16.40;99.90;;;;;;4989486;28;20547;-39
2022/10/24 08:54:54;;;;;;;5.15;0.80;;;16.40;99.90;;;;;;4987556;28;20058;-39
2022/10/24 08:57:27;;;;;;;5.70;0.63;;;16.30;99.90;;;;;;4989660;28;20455;-38
2022/10/24 08:59:58;;;;;;;5.88;0.80;;;16.30;99.90;;;;;;4989278;28;20040;-39
2022/10/24 09:02:27;;;;;;;4.32;0.60;;;16.30;99.90;;;;;;4991071;28;20121;-39
2022/10/24 09:05:01;;;;;;;3.08;0.50;;;16.20;99.90;;;;;;4990636;28;20048;-39
2022/10/24 09:07:26;;;;;;;2.85;1.02;;;16.20;99.90;;;;;;4989770;28;20042;-38
2022/10/24 09:10:20;;;;;;;7.95;0.60;;;16.20;99.90;;;;;;4985698;28;20128;-39
2022/10/24 09:12:46;;;;;;;3.55;0.50;;;16.20;99.90;;;;;;4990393;28;20133;-38
2022/10/24 09:15:23;;;;;;;7.40;1.08;;;16.30;99.90;;;;;;5001585;28;20603;-38
2022/10/24 09:17:50;;;;;;;3.42;0.47;;;16.40;99.90;;;;;;4992036;28;20060;-38
2022/10/24 09:20:28;;;;;;;6.95;0.98;;;16.40;99.90;;;;;;4993879;28;20038;-39
2022/10/24 09:22:57;;;;;;;3.83;0.50;;;16.40;99.90;;;;;;4989448;28;20354;-38
2022/10/24 09:25:30;;;;;;;3.67;0.45;;;16.50;99.90;;;;;;4990742;28;20034;-39
2022/10/24 09:28:03;;;;;;;3.75;0.50;;;16.50;99.90;;;;;;4994218;28;20560;-38
2022/10/24 09:30:29;;;;;;;4.15;0.55;;;16.60;99.90;;;;;;4987766;28;20070;-38
2022/10/24 09:32:57;;;;;;;9.07;0.90;;;16.60;99.90;;;;;;4994640;28;20455;-38
2022/10/24 09:35:28;;;;;;;3.67;0.82;;;16.70;99.90;;;;;;4992418;28;20042;-38
2022/10/24 09:38:18;;;;;;;6.37;1.23;;;16.70;99.90;;;;;;4983304;28;20522;-40
2022/10/24 09:40:50;;;;;;;3.80;0.65;;;16.70;99.90;;;;;;4984572;28;20103;-38
2022/10/24 09:43:24;;;;;;;5.38;0.50;;;16.70;99.90;;;;;;4987380;28;20043;-38
2022/10/24 09:45:59;;;;;;;5.88;0.90;;;16.80;99.90;;;;;;4986436;28;20570;-41
2022/10/24 09:48:47;;;;;;;3.55;0.60;;;16.80;99.90;;;;;;4991628;28;20120;-39
2022/10/24 09:51:29;;;;;;;3.80;0.43;;;16.80;99.30;;;;;;4990340;28;20068;-40
2022/10/24 09:53:59;;;;;;;;;;;16.70;99.90;;;;;;4994248;28;20515;-42
2022/10/24 09:56:34;;;;;;;3.80;0.32;;;16.70;99.90;;;;;;4990073;28;19965;-40
2022/10/24 09:59:40;;;;;;;3.15;1.15;;;16.80;99.90;;;;;;4991560;28;20853;-40
2022/10/24 10:02:33;;;;;;;6.55;0.30;;;16.80;99.90;;;;;;4968439;28;20046;-42
2022/10/24 10:05:02;;;;;;;6.45;0.50;;;16.90;98.80;;;;;;4991855;28;20038;-40
2022/10/24 10:07:35;;;;;;;2.55;0.30;;;16.90;99.10;;;;;;4993558;28;20046;-39
2022/10/24 10:10:20;;;;;;;4.00;0.38;;;16.90;99.30;;;;;;4994001;28;20042;-39
2022/10/24 10:13:18;;;;;;;6.65;0.35;;;16.80;99.70;;;;;;4985905;28;20049;-40
2022/10/24 10:15:47;;;;;;;2.70;0.50;;;16.70;99.90;;;;;;4983752;28;20063;-40
2022/10/24 10:18:31;;;;;;;5.15;1.88;;;16.80;99.90;;;;;;4993129;28;20125;-39
2022/10/24 10:21:07;;;;;;;3.10;0.55;;;16.80;99.90;;;;;;4978275;28;20069;-39
2022/10/24 10:24:03;;;;;;;4.18;0.32;;;16.90;99.90;;;;;;4985606;28;20215;-40
2022/10/24 10:26:43;;;;;;;3.78;0.70;;;16.90;99.90;;;;;;4986380;28;20411;-40
2022/10/24 10:29:18;;;;;;;3.65;0.50;;;16.90;99.90;;;;;;4988051;28;20104;-40
2022/10/24 10:31:47;;;;;;;3.67;0.45;;;16.80;99.90;;;;;;4986232;28;20460;-39
2022/10/24 10:34:36;;;;;;;3.13;0.50;;;16.70;99.90;;;;;;4991395;28;20116;-40
2022/10/24 10:37:27;;;;;;;5.05;0.60;;;16.70;99.90;;;;;;4990678;28;20069;-41
2022/10/24 10:40:17;;;;;;;3.72;0.40;;;16.80;99.90;;;;;;4985899;28;20112;-40
2022/10/24 10:42:51;;;;;;;6.00;0.75;;;16.80;99.90;;;;;;4991994;28;20042;-40
2022/10/24 10:45:38;;;;;;;3.97;0.52;;;16.90;99.90;;;;;;4991201;28;20050;-40
2022/10/24 10:48:41;;;;;;;1.65;0.50;;;16.90;99.90;;;;;;4988209;28;20051;-46
2022/10/24 10:51:12;;;;;;;3.30;0.30;;;16.90;99.90;;;;;;4989461;28;20044;-41
2022/10/24 10:53:56;;;;;;;1.88;0.38;;;16.90;99.90;;;;;;4986288;28;20034;-40
2022/10/24 10:56:52;;;;;;;2.30;0.55;;;16.90;99.90;;;;;;4990424;28;20568;-40
2022/10/24 10:59:27;;;;;;;2.03;0.50;;;17.00;99.80;;;;;;4987274;28;20050;-41
2022/10/24 11:02:30;;;;;;;2.97;0.30;;;16.90;99.50;;;;;;4991607;28;20038;-40
2022/10/24 11:05:35;;;;;;;4.50;0.60;;;17.00;99.60;;;;;;4987986;28;20042;-40
2022/10/24 11:08:38;;;;;;;1.80;0.28;;;17.10;98.40;;;;;;4982215;28;21448;-39
2022/10/24 11:11:07;;;;;;;;;;;17.10;97.00;;;;;;4981073;28;20046;-39
2022/10/24 11:13:42;;;;;;;9.85;0.30;;;17.20;97.80;;;;;;4988117;28;20052;-41
2022/10/24 11:16:24;;;;;;;4.40;0.50;;;17.20;98.50;;;;;;4989673;28;20046;-41
2022/10/24 11:18:52;;;;;;;3.95;0.40;;;17.30;98.20;;;;;;4989044;28;20064;-39
2022/10/24 11:21:21;;;;;;;2.42;0.25;;;17.50;98.00;;;;;;4985270;28;20042;-40
2022/10/24 11:24:03;;;;;;;2.00;0.32;;;17.50;96.10;;;;;;4987822;28;20132;-41
2022/10/24 11:26:44;;;;;;;4.65;0.57;;;17.40;96.40;;;;;;4989355;28;20045;-39
2022/10/24 11:29:27;;;;;;;1.77;0.35;;;17.30;97.30;;;;;;4989103;28;20129;-40
2022/10/24 11:32:01;;;;;;;3.70;0.60;;;17.30;97.10;;;;;;4983025;28;20050;-40
2022/10/24 11:34:35;;;;;;;2.75;0.50;;;17.20;97.90;;;;;;4986401;28;20053;-41
2022/10/24 11:37:06;;;;;;;5.18;0.40;;;17.40;97.80;;;;;;4991612;28;20074;-41
2022/10/24 11:39:56;;;;;;;2.75;0.45;;;17.70;97.10;;;;;;4990780;28;20045;-40
2022/10/24 11:42:51;;;;;;;2.78;0.30;;;18.30;95.60;;;;;;4989040;28;20045;-40
2022/10/24 11:45:19;;;;;;;4.50;0.68;;;18.40;95.00;;;;;;4989034;28;20051;-42
2022/10/24 11:48:01;;;;;;;0.95;0.28;;;18.40;94.60;;;;;;4987189;28;20042;-42
2022/10/24 11:50:29;;;;;;;7.57;0.45;;;18.30;94.20;;;;;;4980827;28;20117;-40
2022/10/24 11:53:22;;;;;;;4.30;0.60;;;18.20;93.40;;;;;;4984181;28;20567;-41
2022/10/24 11:55:57;;;;;;;3.03;0.30;;;17.90;94.70;;;;;;4975286;28;20057;-43
2022/10/24 11:58:26;;;;;;;3.35;0.45;;;18.00;95.50;;;;;;4989207;28;20042;-42
2022/10/24 12:01:30;;;;;;;1.50;0.40;;;18.00;94.70;;;;;;4985579;28;20426;-40
2022/10/24 12:04:35;;;;;;;2.40;0.30;;;17.70;94.70;;;;;;4977350;28;20084;-42
2022/10/24 12:07:28;;;;;;;3.90;0.60;;;17.40;94.80;;;;;;4979093;28;20048;-42
2022/10/24 12:10:18;;;;;;;1.85;0.30;;;17.70;95.90;;;;;;4986782;28;20069;-40
2022/10/24 12:13:19;;;;;;;2.70;0.40;;;18.60;93.90;;;;;;4984021;28;20046;-40
2022/10/24 12:16:06;;;;;;;3.28;0.50;;;19.10;91.60;;;;;;4982687;28;20054;-41
2022/10/24 12:18:38;;;;;;;4.85;0.43;;;19.20;91.30;;;;;;4990936;28;20038;-40
2022/10/24 12:21:07;;;;;;;3.80;0.70;;;19.30;87.40;;;;;;4989016;28;20081;-41
2022/10/24 12:23:34;;;;;;;5.03;0.70;;;19.60;85.40;;;;;;4991373;28;20105;-40
2022/10/24 12:26:06;;;;;;;4.38;0.30;;;19.50;85.40;;;;;;4986470;28;20053;-43
2022/10/24 12:28:32;;;;;;;2.92;0.50;;;18.80;87.20;;;;;;4986916;28;20054;-41
2022/10/24 12:31:14;;;;;;;3.67;0.40;;;18.40;90.20;;;;;;4984667;28;20081;-41
2022/10/24 12:33:41;;;;;;;3.90;0.40;;;18.00;91.20;;;;;;4985272;28;20104;-41
2022/10/24 12:36:07;;;;;;;4.85;0.40;;;17.80;92.70;;;;;;4988513;28;20492;-41
2022/10/24 12:38:32;;;;;;;2.40;0.40;;;17.70;93.00;;;;;;4991461;28;20088;-41
2022/10/24 12:41:26;;;;;;;3.75;0.80;;;17.70;91.90;;;;;;4985031;28;20046;-41
2022/10/24 12:44:30;;;;;;;6.03;0.57;;;17.60;92.60;;;;;;4987248;28;20042;-40
2022/10/24 12:46:56;;;;;;;3.42;0.70;;;17.60;93.70;;;;;;4988142;28;20056;-40
2022/10/24 12:49:30;;;;;;;4.63;0.35;;;17.60;94.00;;;;;;4991436;28;20415;-42
2022/10/24 12:51:56;;;;;;;3.67;0.30;;;17.60;94.10;;;;;;4991154;28;20121;-42
2022/10/24 12:54:43;;;;;;;4.65;0.50;;;17.50;93.80;;;;;;4993150;28;20042;-40
2022/10/24 12:57:11;;;;;;;3.55;0.40;;;17.50;93.70;;;;;;4991922;28;20307;-40
2022/10/24 12:59:51;;;;;;;2.30;0.22;;;17.50;94.40;;;;;;4984952;28;20093;-40
2022/10/24 13:02:19;;;;;;;1.30;0.30;;;17.30;94.70;;;;;;4986969;28;20116;-40
2022/10/24 13:05:26;;;;;;;2.15;0.20;;;17.20;95.40;;;;;;4990344;28;20043;-39
2022/10/24 13:08:22;;;;;;;4.22;0.30;;;17.00;96.00;;;;;;4941015;28;20053;-37
2022/10/24 13:11:34;;;;;;;3.58;0.52;;;16.80;97.40;;;;;;4991503;28;20114;-38